Weather at Brown Field Municipal Airport

Public forecast

Using degrees Fahrenheit for public forecast. Weather courtesy of forecast.io.

Current aviation weather report (METAR) for Brown Field Municipal Airport

Retrieved 2020/09/21 15:21 UTC (24 minutes ago):

KSDM 211521Z 02003KT 5SM HZ OVC008 19/16 A2997

Closest aviation forecast (TAF) to Brown Field Municipal Airport

Closest forecast is General Abelardo L. Rodríguez International Airport, 1.9 nm (3.6 km) SSE. Retrieved 2020/09/21 12:55 UTC (3 hours ago):

TAF MMTJ 211050Z 2112/2218 00000KT 3SM BR OVC007 TX27/2121Z TN18/2112Z TEMPO 2112/2115 1SM BR OVC005 FM211600 00000KT 3SM HZ BKN007 FM211800 30010KT 6SM HZ SKC FM220300 33005KT 6SM HZ SKC FM220800 00000KT 3SM BKN010 TEMPO 2210/2214 2SM BR OVC005